createdAt,value
2023-05-05T00:00:20.529Z,81
2023-05-05T00:10:20.857Z,82
2023-05-05T00:20:21.086Z,80
2023-05-05T00:40:21.536Z,80
2023-05-05T00:50:21.660Z,79
2023-05-05T01:10:23.052Z,81
2023-05-05T01:20:23.454Z,81
2023-05-05T01:30:24.224Z,82
2023-05-05T01:40:25.067Z,82
2023-05-05T01:50:25.270Z,84
2023-05-05T02:00:26.281Z,86
2023-05-05T02:20:27.344Z,85
2023-05-05T02:40:28.779Z,84
2023-05-05T03:00:29.902Z,84
2023-05-05T03:20:30.853Z,85
2023-05-05T03:40:40.704Z,83
2023-05-05T04:00:33.925Z,84
2023-05-05T04:10:34.308Z,85
2023-05-05T04:20:34.723Z,85
2023-05-05T04:30:35.629Z,85
2023-05-05T04:40:36.133Z,86
2023-05-05T05:00:36.585Z,88
2023-05-05T05:20:38.730Z,88
2023-05-05T05:40:40.068Z,87
2023-05-05T05:50:41.005Z,86
2023-05-05T06:00:42.047Z,87
2023-05-05T06:10:42.422Z,85
2023-05-05T06:40:44.069Z,81
2023-05-05T07:00:44.876Z,78
2023-05-05T07:10:45.776Z,76
2023-05-05T07:20:46.067Z,76
2023-05-05T07:40:47.516Z,76
2023-05-05T07:50:48.027Z,77
2023-05-05T08:00:48.955Z,75
2023-05-05T08:10:49.319Z,76
2023-05-05T08:20:50.245Z,76
2023-05-05T08:30:51.359Z,75
2023-05-05T08:40:52.380Z,76
2023-05-05T08:50:53.061Z,75
2023-05-05T09:00:54.219Z,75
2023-05-05T09:10:54.597Z,72
2023-05-05T09:20:56.046Z,72
2023-05-05T09:30:56.341Z,70
2023-05-05T09:40:56.664Z,69
2023-05-05T09:50:57.253Z,68
2023-05-05T10:00:57.664Z,67
2023-05-05T10:10:58.513Z,66
2023-05-05T11:41:04.297Z,63
2023-05-05T11:51:04.754Z,63
2023-05-05T12:01:05.225Z,64
2023-05-05T12:21:07.007Z,64
2023-05-05T13:01:09.193Z,79
2023-05-05T13:21:10.063Z,90
2023-05-05T13:41:11.170Z,91
2023-05-05T14:11:13.151Z,91
2023-05-05T14:21:14.032Z,90
2023-05-05T14:31:14.316Z,92
2023-05-05T14:41:15.104Z,98
2023-05-05T15:41:18.256Z,100
2023-05-05T16:01:19.794Z,100
2023-05-05T16:21:20.717Z,97
2023-05-05T17:01:22.229Z,96
2023-05-05T17:11:22.821Z,96
2023-05-05T17:21:23.639Z,93
2023-05-05T17:41:25.347Z,94
2023-05-05T17:51:26.118Z,95
2023-05-05T18:01:26.331Z,97
2023-05-05T18:21:26.930Z,98
2023-05-05T18:41:28.049Z,100
2023-05-05T18:51:29.084Z,100
2023-05-05T19:01:30.054Z,100
2023-05-05T19:11:31.109Z,100
2023-05-05T19:31:32.055Z,100
2023-05-05T19:41:32.962Z,100
2023-05-05T19:51:33.244Z,100
2023-05-05T20:01:33.866Z,100
2023-05-05T20:11:34.231Z,100
2023-05-05T20:21:34.687Z,100
2023-05-05T20:31:35.687Z,100
2023-05-05T20:41:35.878Z,100
2023-05-05T20:51:36.825Z,100
2023-05-05T21:01:37.096Z,100
2023-05-05T21:11:37.710Z,100
2023-05-05T21:21:38.794Z,100
2023-05-05T21:31:39.835Z,100
2023-05-05T21:41:40.204Z,100
2023-05-05T21:51:40.804Z,100
2023-05-05T22:01:41.110Z,100
2023-05-05T22:11:41.852Z,100
2023-05-05T22:21:42.062Z,100
2023-05-05T22:31:42.571Z,100
2023-05-05T22:41:42.772Z,100
2023-05-05T22:51:43.697Z,100
2023-05-05T23:01:44.071Z,100
2023-05-05T23:21:52.412Z,100
2023-05-05T23:31:45.916Z,100
2023-05-05T23:41:46.273Z,100
2023-05-05T23:51:46.657Z,100
